createdAt,value
2018-02-25T00:00:17.636Z,-3.37
2018-02-25T00:02:45.311Z,-3.47
2018-02-25T00:05:13.054Z,-3.48
2018-02-25T00:07:40.737Z,-3.44
2018-02-25T00:10:08.764Z,-3.21
2018-02-25T00:12:36.452Z,-3.26
2018-02-25T00:15:04.120Z,-3.31
2018-02-25T00:17:31.856Z,-3.48
2018-02-25T00:19:59.547Z,-3.48
2018-02-25T00:22:30.213Z,-3.43
2018-02-25T00:24:57.938Z,-3.00
2018-02-25T00:27:25.776Z,-3.08
2018-02-25T00:29:53.457Z,-3.15
2018-02-25T00:32:21.126Z,-3.18
2018-02-25T00:34:48.821Z,-3.32
2018-02-25T00:37:16.515Z,-3.53
2018-02-25T00:39:44.214Z,-3.26
2018-02-25T00:42:11.884Z,-3.26
2018-02-25T00:44:39.944Z,-3.42
2018-02-25T00:47:07.626Z,-3.37
2018-02-25T00:49:35.322Z,-3.69
2018-02-25T00:52:03.033Z,-3.62
2018-02-25T00:54:30.720Z,-4.08
2018-02-25T00:56:58.520Z,-3.85
2018-02-25T00:59:26.199Z,-3.86
2018-02-25T01:01:54.122Z,-3.80
2018-02-25T01:04:21.816Z,-3.89
2018-02-25T01:06:49.500Z,-3.90
2018-02-25T01:09:17.197Z,-3.77
2018-02-25T01:11:44.877Z,-3.86
2018-02-25T01:14:12.585Z,-3.81
2018-02-25T01:16:40.266Z,-3.57
2018-02-25T01:19:08.453Z,-3.55
2018-02-25T01:21:36.160Z,-3.77
2018-02-25T01:24:03.829Z,-3.75
2018-02-25T01:26:32.135Z,-3.87
2018-02-25T01:28:59.811Z,-3.90
2018-02-25T01:31:27.517Z,-3.81
2018-02-25T01:33:55.324Z,-3.70
2018-02-25T01:36:23.196Z,-3.77
2018-02-25T01:38:50.883Z,-4.01
2018-02-25T01:41:18.664Z,-3.94
2018-02-25T01:43:46.690Z,-3.68
2018-02-25T01:46:14.357Z,-3.82
2018-02-25T01:48:42.053Z,-3.71
2018-02-25T01:51:09.751Z,-3.92
2018-02-25T01:53:37.649Z,-3.78
2018-02-25T01:56:05.343Z,-3.64
2018-02-25T01:58:33.028Z,-4.00
2018-02-25T02:01:00.814Z,-3.94
2018-02-25T02:03:28.501Z,-4.03
2018-02-25T02:05:56.426Z,-3.93
2018-02-25T02:08:24.135Z,-3.97
2018-02-25T02:10:51.837Z,-3.88
2018-02-25T02:13:19.544Z,-3.88
2018-02-25T02:15:47.240Z,-3.74
2018-02-25T02:18:14.946Z,-3.87
2018-02-25T02:20:42.628Z,-3.75
2018-02-25T02:23:10.636Z,-3.78
2018-02-25T02:25:38.307Z,-3.81
2018-02-25T02:28:05.992Z,-3.53
2018-02-25T02:30:33.684Z,-3.60
2018-02-25T02:33:01.359Z,-3.59
2018-02-25T02:35:29.063Z,-3.86
2018-02-25T02:37:56.811Z,-3.80
2018-02-25T02:40:24.763Z,-3.87
2018-02-25T02:42:52.449Z,-3.70
2018-02-25T02:45:20.137Z,-3.83
2018-02-25T02:47:47.831Z,-4.00
2018-02-25T02:50:15.505Z,-3.93
2018-02-25T02:52:43.212Z,-3.86
2018-02-25T02:55:10.925Z,-4.07
2018-02-25T02:57:38.804Z,-3.69
2018-02-25T03:00:06.545Z,-3.66
2018-02-25T03:02:34.216Z,-3.86
2018-02-25T03:05:01.912Z,-3.82
2018-02-25T03:07:29.593Z,-3.83
2018-02-25T03:09:57.295Z,-3.89
2018-02-25T03:12:24.977Z,-3.87
2018-02-25T03:14:52.962Z,-3.76
2018-02-25T03:17:20.635Z,-3.67
2018-02-25T03:19:48.299Z,-3.68
2018-02-25T03:22:16.109Z,-3.72
2018-02-25T03:24:43.794Z,-3.74
2018-02-25T03:27:11.480Z,-3.91
2018-02-25T03:29:39.159Z,-3.88
2018-02-25T03:32:06.876Z,-3.67
2018-02-25T03:34:34.567Z,-3.78
2018-02-25T03:37:02.259Z,-4.03
2018-02-25T03:39:29.960Z,-3.92
2018-02-25T03:41:57.624Z,-4.16
2018-02-25T03:44:25.332Z,-3.95
2018-02-25T03:46:53.003Z,-4.04
2018-02-25T03:49:22.384Z,-3.94
2018-02-25T03:51:50.078Z,-4.01
2018-02-25T03:54:17.812Z,-4.07
2018-02-25T03:56:45.518Z,-3.93
2018-02-25T03:59:13.235Z,-3.95
2018-02-25T04:01:40.939Z,-3.87
2018-02-25T04:04:08.615Z,-3.95
2018-02-25T04:06:36.358Z,-3.91
2018-02-25T04:09:04.042Z,-4.04
2018-02-25T04:11:31.726Z,-4.04
2018-02-25T04:13:59.477Z,-4.17
2018-02-25T04:16:27.162Z,-4.13
2018-02-25T04:18:54.856Z,-4.03
2018-02-25T04:21:22.558Z,-4.12
2018-02-25T04:23:50.255Z,-4.12
2018-02-25T04:26:18.031Z,-4.10
2018-02-25T04:28:45.712Z,-4.30
2018-02-25T04:31:13.433Z,-4.29
2018-02-25T04:33:41.093Z,-4.23
2018-02-25T04:36:08.770Z,-4.18
2018-02-25T04:38:36.473Z,-4.03
2018-02-25T04:41:04.234Z,-4.06
2018-02-25T04:43:32.067Z,-3.86
2018-02-25T04:45:59.736Z,-3.92
2018-02-25T04:48:27.407Z,-3.92
2018-02-25T04:50:55.109Z,-4.14
2018-02-25T04:53:22.826Z,-4.27
2018-02-25T04:55:51.095Z,-4.38
2018-02-25T04:58:18.775Z,-4.24
2018-02-25T05:00:46.637Z,-4.30
2018-02-25T05:03:14.316Z,-4.33
2018-02-25T05:05:41.996Z,-4.36
2018-02-25T05:08:09.692Z,-4.39
2018-02-25T05:10:37.360Z,-4.24
2018-02-25T05:13:05.053Z,-4.54
2018-02-25T05:15:32.743Z,-4.67
2018-02-25T05:18:00.884Z,-4.84
2018-02-25T05:20:28.555Z,-4.72
2018-02-25T05:22:56.220Z,-4.80
2018-02-25T05:25:23.923Z,-4.63
2018-02-25T05:27:51.610Z,-4.69
2018-02-25T05:30:19.305Z,-4.67
2018-02-25T05:32:46.980Z,-4.46
2018-02-25T05:35:14.692Z,-4.58
2018-02-25T05:37:42.364Z,-4.79
2018-02-25T05:40:10.034Z,-4.55
2018-02-25T05:42:37.728Z,-4.74
2018-02-25T05:45:05.399Z,-4.67
2018-02-25T05:47:33.097Z,-4.62
2018-02-25T05:50:00.772Z,-5.01
2018-02-25T05:52:28.612Z,-4.79
2018-02-25T05:54:56.290Z,-4.61
2018-02-25T05:57:23.967Z,-4.81
2018-02-25T05:59:51.665Z,-4.69
2018-02-25T06:02:19.341Z,-4.78
2018-02-25T06:04:47.073Z,-4.78
2018-02-25T06:07:14.744Z,-4.67
2018-02-25T06:09:42.674Z,-4.71
2018-02-25T06:12:10.359Z,-4.93
2018-02-25T06:14:38.034Z,-4.77
2018-02-25T06:17:05.740Z,-4.77
2018-02-25T06:19:33.420Z,-5.27
2018-02-25T06:22:01.144Z,-5.13
2018-02-25T06:24:28.818Z,-5.05
2018-02-25T06:26:56.654Z,-4.90
2018-02-25T06:29:24.331Z,-5.01
2018-02-25T06:31:52.011Z,-4.99
2018-02-25T06:34:19.707Z,-4.82
2018-02-25T06:36:47.411Z,-4.77
2018-02-25T06:39:15.115Z,-4.75
2018-02-25T06:41:42.798Z,-4.94
2018-02-25T06:44:10.714Z,-4.75
2018-02-25T06:46:38.393Z,-4.85
2018-02-25T06:49:06.068Z,-5.12
2018-02-25T06:51:33.760Z,-5.04
2018-02-25T06:54:01.439Z,-5.11
2018-02-25T06:56:29.133Z,-5.06
2018-02-25T06:58:56.808Z,-4.93
2018-02-25T07:01:24.521Z,-4.85
2018-02-25T07:03:52.210Z,-5.05
2018-02-25T07:06:19.896Z,-5.00
2018-02-25T07:08:48.732Z,-4.90
2018-02-25T07:11:16.403Z,-4.91
2018-02-25T07:13:44.113Z,-4.62
2018-02-25T07:16:11.784Z,-4.46
2018-02-25T07:18:39.497Z,-5.02
2018-02-25T07:21:07.172Z,-4.64
2018-02-25T07:23:34.864Z,-4.38
2018-02-25T07:26:02.555Z,-4.40
2018-02-25T07:28:30.219Z,-4.34
2018-02-25T07:30:57.918Z,-4.58
2018-02-25T07:33:25.587Z,-4.58
2018-02-25T07:35:53.309Z,-4.43
2018-02-25T07:38:20.987Z,-4.56
2018-02-25T07:40:48.659Z,-4.23
2018-02-25T07:43:16.357Z,-4.43
2018-02-25T07:45:44.028Z,-4.06
2018-02-25T07:48:11.718Z,-4.06
2018-02-25T07:50:39.385Z,-3.89
2018-02-25T07:53:07.284Z,-4.33
2018-02-25T07:55:34.969Z,-4.21
2018-02-25T07:58:02.640Z,-4.02
2018-02-25T08:00:30.439Z,-3.92
2018-02-25T08:02:58.126Z,-4.05
2018-02-25T08:05:26.572Z,-4.03
2018-02-25T08:07:54.256Z,-4.45
2018-02-25T08:10:22.148Z,-4.68
2018-02-25T08:12:49.835Z,-4.40
2018-02-25T08:15:17.511Z,-4.45
2018-02-25T08:17:45.210Z,-4.21
2018-02-25T08:20:12.889Z,-4.36
2018-02-25T08:22:40.596Z,-4.29
2018-02-25T08:25:08.268Z,-4.17
2018-02-25T08:27:36.300Z,-4.12
2018-02-25T08:30:03.976Z,-3.98
2018-02-25T08:32:31.662Z,-3.74
2018-02-25T08:34:59.360Z,-3.81
2018-02-25T08:37:27.035Z,-3.94
2018-02-25T08:39:54.728Z,-4.03
2018-02-25T08:42:22.413Z,-4.29
2018-02-25T08:44:50.266Z,-4.07
2018-02-25T08:47:17.940Z,-3.98
2018-02-25T08:49:45.619Z,-4.07
2018-02-25T08:52:13.312Z,-3.94
2018-02-25T08:54:40.990Z,-3.63
2018-02-25T08:57:08.692Z,-3.34
2018-02-25T08:59:36.359Z,-3.21
2018-02-25T09:02:04.299Z,-3.48
2018-02-25T09:04:31.977Z,-3.37
2018-02-25T09:06:59.707Z,-3.42
2018-02-25T09:09:27.375Z,-3.42
2018-02-25T09:11:55.064Z,-3.40
2018-02-25T09:14:22.788Z,-3.28
2018-02-25T09:16:50.476Z,-3.58
2018-02-25T09:19:18.177Z,-3.48
2018-02-25T09:21:45.861Z,-3.69
2018-02-25T09:26:47.472Z,-3.55
2018-02-25T09:29:15.234Z,-3.70
2018-02-25T09:31:43.091Z,-3.06
2018-02-25T09:34:10.776Z,-3.01
2018-02-25T09:36:38.442Z,-2.98
2018-02-25T09:39:06.142Z,-3.22
2018-02-25T09:41:33.823Z,-3.11
2018-02-25T09:44:01.713Z,-2.90
2018-02-25T09:46:29.416Z,-2.99
2018-02-25T09:48:57.084Z,-3.02
2018-02-25T09:51:24.811Z,-2.99
2018-02-25T09:53:52.508Z,-2.91
2018-02-25T09:56:20.203Z,-2.60
2018-02-25T09:58:47.873Z,-2.38
2018-02-25T10:01:15.766Z,-2.74
2018-02-25T10:03:43.438Z,-3.10
2018-02-25T10:06:11.117Z,-3.07
2018-02-25T10:08:38.830Z,-3.02
2018-02-25T10:11:06.514Z,-2.44
2018-02-25T10:13:34.355Z,-2.67
2018-02-25T10:16:02.042Z,-2.62
2018-02-25T10:18:29.729Z,-2.70
2018-02-25T10:20:57.429Z,-2.94
2018-02-25T10:23:25.103Z,-3.31
2018-02-25T10:25:52.803Z,-3.14
2018-02-25T10:28:20.479Z,-2.83
2018-02-25T10:30:48.536Z,-2.26
2018-02-25T10:33:16.237Z,-2.29
2018-02-25T10:35:43.920Z,-2.52
2018-02-25T10:38:11.623Z,-2.91
2018-02-25T10:40:39.309Z,-2.42
2018-02-25T10:43:07.040Z,-2.53
2018-02-25T10:45:34.739Z,-2.62
2018-02-25T10:48:02.479Z,-2.61
2018-02-25T10:50:30.164Z,-2.68
2018-02-25T10:52:57.842Z,-2.87
2018-02-25T10:55:25.541Z,-2.55
2018-02-25T10:57:53.230Z,-2.67
2018-02-25T11:00:26.416Z,-2.36
2018-02-25T11:02:54.098Z,-2.28
2018-02-25T11:05:21.971Z,-2.18
2018-02-25T11:07:49.642Z,-2.80
2018-02-25T11:10:17.324Z,-2.55
2018-02-25T11:12:45.039Z,-2.68
2018-02-25T11:15:12.740Z,-2.69
2018-02-25T11:17:40.564Z,-2.21
2018-02-25T11:20:08.235Z,-1.83
2018-02-25T11:22:35.912Z,-1.87
2018-02-25T11:25:03.606Z,-1.92
2018-02-25T11:27:31.279Z,-1.87
2018-02-25T11:29:58.974Z,-1.86
2018-02-25T11:32:26.639Z,-1.64
2018-02-25T11:34:54.623Z,-1.13
2018-02-25T11:37:22.287Z,-0.94
2018-02-25T11:39:49.957Z,-1.13
2018-02-25T11:42:17.656Z,-1.10
2018-02-25T11:44:45.355Z,-1.38
2018-02-25T11:47:13.034Z,-1.39
2018-02-25T11:49:40.704Z,-1.19
2018-02-25T11:52:08.651Z,-1.05
2018-02-25T11:54:36.330Z,-0.67
2018-02-25T11:57:04.000Z,-0.38
2018-02-25T11:59:31.676Z,0.01
2018-02-25T12:01:59.356Z,0.06
2018-02-25T12:04:27.066Z,-0.47
2018-02-25T12:06:54.737Z,-0.61
2018-02-25T12:09:22.433Z,-0.28
2018-02-25T12:11:50.099Z,-0.03
2018-02-25T12:14:17.820Z,-0.22
2018-02-25T12:16:45.497Z,-0.52
2018-02-25T12:19:13.171Z,-0.86
2018-02-25T12:21:40.873Z,-0.75
2018-02-25T12:24:08.560Z,-0.67
2018-02-25T12:26:36.259Z,-0.27
2018-02-25T12:29:03.944Z,0.62
2018-02-25T12:31:31.769Z,1.73
2018-02-25T12:33:59.439Z,2.22
2018-02-25T12:36:27.119Z,1.31
2018-02-25T12:38:54.831Z,2.08
2018-02-25T12:41:22.508Z,2.25
2018-02-25T12:43:50.222Z,1.64
2018-02-25T12:46:17.896Z,1.82
2018-02-25T12:48:45.829Z,1.81
2018-02-25T12:51:13.527Z,1.98
2018-02-25T12:53:41.191Z,3.53
2018-02-25T12:56:08.890Z,3.87
2018-02-25T12:58:36.579Z,3.53
2018-02-25T13:01:04.323Z,3.67
2018-02-25T13:03:31.989Z,3.93
2018-02-25T13:05:59.886Z,4.88
2018-02-25T13:08:27.481Z,6.01
2018-02-25T13:10:55.075Z,5.94
2018-02-25T13:13:22.692Z,6.10
2018-02-25T13:15:50.296Z,6.52
2018-02-25T13:18:17.954Z,7.40
2018-02-25T13:20:45.559Z,7.53
2018-02-25T13:23:13.239Z,5.76
2018-02-25T13:25:40.861Z,5.59
2018-02-25T13:28:08.449Z,5.83
2018-02-25T13:30:36.069Z,7.69
2018-02-25T13:33:03.668Z,8.27
2018-02-25T13:35:31.316Z,7.81
2018-02-25T13:37:58.901Z,6.71
2018-02-25T13:40:26.501Z,6.30
2018-02-25T13:42:54.166Z,5.75
2018-02-25T13:45:21.756Z,6.52
2018-02-25T13:47:49.635Z,6.55
2018-02-25T13:50:17.256Z,6.86
2018-02-25T13:52:44.872Z,7.31
2018-02-25T13:55:12.460Z,7.09
2018-02-25T13:57:40.768Z,6.34
2018-02-25T14:00:08.381Z,6.63
2018-02-25T14:02:35.985Z,5.98
2018-02-25T14:05:03.599Z,5.56
2018-02-25T14:07:31.214Z,5.07
2018-02-25T14:09:58.858Z,5.56
2018-02-25T14:12:26.469Z,5.47
2018-02-25T14:14:54.070Z,5.14
2018-02-25T14:17:21.681Z,4.98
2018-02-25T14:19:49.356Z,4.31
2018-02-25T14:22:17.076Z,4.77
2018-02-25T14:24:44.674Z,5.24
2018-02-25T14:27:12.308Z,4.59
2018-02-25T14:29:39.955Z,4.48
2018-02-25T14:32:07.665Z,4.16
2018-02-25T14:34:35.370Z,3.03
2018-02-25T14:37:03.041Z,2.94
2018-02-25T14:39:30.741Z,2.97
2018-02-25T14:41:58.407Z,2.35
2018-02-25T14:44:26.233Z,2.20
2018-02-25T14:46:53.912Z,2.02
2018-02-25T14:49:21.607Z,1.88
2018-02-25T14:51:49.307Z,1.80
2018-02-25T14:54:16.979Z,1.80
2018-02-25T14:56:44.689Z,1.95
2018-02-25T14:59:12.375Z,2.27
2018-02-25T15:01:40.310Z,2.35
2018-02-25T15:04:07.991Z,2.22
2018-02-25T15:06:35.667Z,1.89
2018-02-25T15:09:03.371Z,1.76
2018-02-25T15:11:31.133Z,1.62
2018-02-25T15:13:58.824Z,1.49
2018-02-25T15:16:26.487Z,1.28
2018-02-25T15:18:54.321Z,1.16
2018-02-25T15:21:21.981Z,1.36
2018-02-25T15:23:49.772Z,1.31
2018-02-25T15:26:17.495Z,1.16
2018-02-25T15:28:45.162Z,1.09
2018-02-25T15:31:12.865Z,0.98
2018-02-25T15:33:40.552Z,0.77
2018-02-25T15:36:08.253Z,1.28
2018-02-25T15:38:35.926Z,1.21
2018-02-25T15:41:03.609Z,1.17
2018-02-25T15:43:31.329Z,1.16
2018-02-25T15:45:59.209Z,0.93
2018-02-25T15:48:26.911Z,0.35
2018-02-25T15:50:54.840Z,0.47
2018-02-25T15:53:22.735Z,0.32
2018-02-25T15:55:50.405Z,0.48
2018-02-25T15:58:18.249Z,0.38
2018-02-25T16:00:45.946Z,0.44
2018-02-25T16:03:13.610Z,0.30
2018-02-25T16:05:41.315Z,-0.06
2018-02-25T16:08:09.000Z,0.41
2018-02-25T16:10:36.830Z,0.86
2018-02-25T16:13:04.502Z,0.65
2018-02-25T16:15:32.307Z,0.43
2018-02-25T16:18:00.008Z,0.36
2018-02-25T16:20:27.688Z,0.24
2018-02-25T16:22:55.602Z,0.46
2018-02-25T16:25:23.273Z,0.71
2018-02-25T16:27:50.960Z,0.62
2018-02-25T16:30:18.663Z,0.50
2018-02-25T16:32:46.350Z,0.56
2018-02-25T16:35:14.091Z,0.61
2018-02-25T16:37:41.772Z,0.44
2018-02-25T16:40:09.648Z,0.27
2018-02-25T16:42:37.330Z,0.17
2018-02-25T16:45:05.000Z,0.11
2018-02-25T16:47:32.700Z,0.12
2018-02-25T16:50:00.367Z,0.26
2018-02-25T16:52:28.066Z,-0.03
2018-02-25T16:54:55.736Z,-0.16
2018-02-25T16:57:23.428Z,-0.02
2018-02-25T16:59:51.113Z,0.00
2018-02-25T17:02:19.102Z,-0.16
2018-02-25T17:04:46.789Z,-0.14
2018-02-25T17:07:14.449Z,-0.04
2018-02-25T17:09:42.202Z,-0.18
2018-02-25T17:12:09.848Z,-0.38
2018-02-25T17:14:37.553Z,-0.46
2018-02-25T17:17:05.236Z,-0.40
2018-02-25T17:19:33.150Z,-0.34
2018-02-25T17:22:00.827Z,-0.37
2018-02-25T17:24:28.529Z,-0.48
2018-02-25T17:26:56.251Z,-0.51
2018-02-25T17:29:24.132Z,-0.54
2018-02-25T17:31:51.903Z,-0.56
2018-02-25T17:34:19.615Z,-0.90
2018-02-25T17:36:47.488Z,-0.64
2018-02-25T17:39:15.167Z,-0.49
2018-02-25T17:41:42.844Z,-0.61
2018-02-25T17:44:10.542Z,-0.80
2018-02-25T17:46:38.227Z,-1.02
2018-02-25T17:49:05.934Z,-1.28
2018-02-25T17:51:33.630Z,-1.29
2018-02-25T17:54:01.347Z,-1.20
2018-02-25T17:56:29.019Z,-1.33
2018-02-25T17:58:56.982Z,-1.09
2018-02-25T18:01:24.695Z,-1.36
2018-02-25T18:03:52.366Z,-1.42
2018-02-25T18:06:20.068Z,-1.50
2018-02-25T18:08:47.750Z,-1.30
2018-02-25T18:11:15.741Z,-1.36
2018-02-25T18:13:43.417Z,-1.60
2018-02-25T18:16:11.087Z,-1.92
2018-02-25T18:18:38.798Z,-1.73
2018-02-25T18:21:06.472Z,-1.85
2018-02-25T18:23:34.162Z,-1.78
2018-02-25T18:26:01.837Z,-1.94
2018-02-25T18:28:29.850Z,-1.70
2018-02-25T18:30:57.517Z,-1.82
2018-02-25T18:33:25.195Z,-1.85
2018-02-25T18:35:52.892Z,-1.92
2018-02-25T18:38:20.557Z,-1.82
2018-02-25T18:40:48.260Z,-1.88
2018-02-25T18:43:15.947Z,-1.83
2018-02-25T18:45:43.784Z,-1.85
2018-02-25T18:48:11.453Z,-1.98
2018-02-25T18:50:39.133Z,-2.14
2018-02-25T18:53:06.812Z,-2.28
2018-02-25T18:55:34.483Z,-2.31
2018-02-25T18:58:02.168Z,-2.20
2018-02-25T19:00:29.835Z,-2.48
2018-02-25T19:02:57.584Z,-2.46
2018-02-25T19:05:25.264Z,-2.43
2018-02-25T19:07:52.953Z,-2.32
2018-02-25T19:10:20.656Z,-2.33
2018-02-25T19:12:48.325Z,-2.51
2018-02-25T19:15:16.161Z,-2.41
2018-02-25T19:17:43.822Z,-2.46
2018-02-25T19:20:11.495Z,-2.36
2018-02-25T19:22:39.188Z,-2.46
2018-02-25T19:25:06.884Z,-2.42
2018-02-25T19:27:34.594Z,-2.50
2018-02-25T19:30:02.269Z,-2.35
2018-02-25T19:32:29.985Z,-2.55
2018-02-25T19:34:57.643Z,-2.40
2018-02-25T19:37:30.941Z,-2.34
2018-02-25T19:40:03.973Z,-2.33
2018-02-25T19:42:31.667Z,-2.72
2018-02-25T19:44:59.378Z,-2.39
2018-02-25T19:47:27.051Z,-2.60
2018-02-25T19:49:54.749Z,-2.56
2018-02-25T19:52:22.410Z,-2.68
2018-02-25T19:54:50.429Z,-2.69
2018-02-25T19:57:18.093Z,-2.52
2018-02-25T19:59:45.764Z,-2.63
2018-02-25T20:02:13.448Z,-2.52
2018-02-25T20:04:41.129Z,-2.47
2018-02-25T20:07:08.817Z,-2.50
2018-02-25T20:09:36.503Z,-2.62
2018-02-25T20:12:04.256Z,-2.50
2018-02-25T20:14:32.034Z,-2.63
2018-02-25T20:16:59.727Z,-2.62
2018-02-25T20:19:27.386Z,-2.81
2018-02-25T20:21:55.083Z,-3.04
2018-02-25T20:24:22.761Z,-2.82
2018-02-25T20:26:50.458Z,-2.80
2018-02-25T20:29:18.149Z,-3.26
2018-02-25T20:31:45.869Z,-3.12
2018-02-25T20:34:13.549Z,-3.30
2018-02-25T20:36:41.244Z,-3.28
2018-02-25T20:39:08.920Z,-3.06
2018-02-25T20:41:36.583Z,-3.26
2018-02-25T20:44:04.269Z,-3.19
2018-02-25T20:46:31.935Z,-3.34
2018-02-25T20:48:59.813Z,-3.39
2018-02-25T20:51:27.514Z,-3.20
2018-02-25T20:53:55.251Z,-3.37
2018-02-25T20:56:22.911Z,-3.35
2018-02-25T20:58:50.576Z,-3.08
2018-02-25T21:01:18.270Z,-3.09
2018-02-25T21:03:45.932Z,-3.17
2018-02-25T21:06:13.953Z,-3.28
2018-02-25T21:08:41.620Z,-3.31
2018-02-25T21:11:09.287Z,-3.26
2018-02-25T21:13:36.986Z,-3.08
2018-02-25T21:16:04.651Z,-3.13
2018-02-25T21:18:32.334Z,-3.33
2018-02-25T21:21:00.034Z,-3.38
2018-02-25T21:23:27.906Z,-3.49
2018-02-25T21:25:55.572Z,-3.44
2018-02-25T21:28:23.257Z,-3.26
2018-02-25T21:30:50.961Z,-3.14
2018-02-25T21:33:18.649Z,-3.15
2018-02-25T21:35:46.615Z,-3.75
2018-02-25T21:38:14.284Z,-3.60
2018-02-25T21:40:42.041Z,-3.69
2018-02-25T21:43:09.743Z,-3.59
2018-02-25T21:45:37.429Z,-3.93
2018-02-25T21:48:05.140Z,-3.90
2018-02-25T21:50:32.825Z,-3.93
2018-02-25T21:53:00.869Z,-3.83
2018-02-25T21:55:28.573Z,-3.64
2018-02-25T21:58:02.011Z,-4.05
2018-02-25T22:00:35.091Z,-4.02
2018-02-25T22:03:08.524Z,-3.93
2018-02-25T22:05:36.196Z,-3.71
2018-02-25T22:08:03.880Z,-4.00
2018-02-25T22:10:31.575Z,-3.95
2018-02-25T22:12:59.256Z,-4.07
2018-02-25T22:15:26.956Z,-4.01
2018-02-25T22:17:54.628Z,-3.95
2018-02-25T22:20:22.419Z,-4.07
2018-02-25T22:22:50.144Z,-4.06
2018-02-25T22:25:17.812Z,-4.36
2018-02-25T22:27:45.514Z,-4.16
2018-02-25T22:30:13.188Z,-4.02
2018-02-25T22:32:40.876Z,-3.97
2018-02-25T22:35:08.541Z,-3.83
2018-02-25T22:37:36.396Z,-3.93
2018-02-25T22:40:04.084Z,-3.88
2018-02-25T22:42:31.758Z,-3.97
2018-02-25T22:44:59.473Z,-4.16
2018-02-25T22:47:27.136Z,-4.18
2018-02-25T22:49:54.828Z,-4.29
2018-02-25T22:52:22.502Z,-4.12
2018-02-25T22:54:50.551Z,-4.28
2018-02-25T22:57:18.220Z,-4.15
2018-02-25T22:59:45.900Z,-4.12
2018-02-25T23:02:13.601Z,-4.10
2018-02-25T23:04:41.285Z,-4.52
2018-02-25T23:07:08.976Z,-4.50
2018-02-25T23:09:36.648Z,-4.25
2018-02-25T23:12:04.363Z,-4.08
2018-02-25T23:14:32.023Z,-4.32
2018-02-25T23:16:59.699Z,-4.17
2018-02-25T23:19:27.396Z,-4.02
2018-02-25T23:21:55.063Z,-4.41
2018-02-25T23:24:22.757Z,-4.45
2018-02-25T23:26:50.478Z,-4.31
2018-02-25T23:29:18.369Z,-4.28
2018-02-25T23:31:46.050Z,-4.41
2018-02-25T23:34:13.729Z,-4.38
2018-02-25T23:36:41.443Z,-4.34
2018-02-25T23:39:09.121Z,-4.45
2018-02-25T23:41:36.811Z,-4.25
2018-02-25T23:44:04.476Z,-4.23
2018-02-25T23:46:33.983Z,-4.12
2018-02-25T23:49:01.643Z,-4.19
2018-02-25T23:51:29.330Z,-4.41
2018-02-25T23:53:57.013Z,-4.23
2018-02-25T23:56:24.684Z,-4.22
2018-02-25T23:58:52.584Z,-4.17
